createdAt,value
2023-04-16T01:04:29.782Z,0.04
2023-04-16T01:09:31.033Z,0.04
2023-04-16T01:14:30.575Z,0.04
2023-04-16T01:19:27.843Z,0.04
2023-04-16T01:24:27.434Z,0.04
2023-04-16T01:29:26.804Z,0.04
2023-04-16T01:34:26.142Z,0.04
2023-04-16T01:39:25.100Z,0.04
2023-04-16T01:44:26.563Z,0.04
2023-04-16T01:49:25.174Z,0.04
2023-04-16T01:54:23.888Z,0.04
2023-04-16T03:01:02.431Z,0.04
2023-04-16T03:05:38.508Z,0.04
2023-04-16T03:10:36.433Z,0.04
2023-04-16T03:15:37.116Z,0.04
2023-04-16T03:20:34.146Z,0.04
2023-04-16T03:25:34.545Z,0.04
2023-04-16T03:30:33.571Z,0.04
2023-04-16T03:35:33.265Z,0.04
2023-04-16T03:40:30.558Z,0.04
2023-04-16T03:45:30.429Z,0.04
2023-04-16T03:50:29.605Z,0.04
2023-04-16T03:55:30.640Z,0.04
2023-04-16T03:59:52.787Z,0.04
2023-04-16T04:04:53.461Z,0.04
2023-04-16T04:09:52.848Z,0.04
2023-04-16T04:20:01.093Z,0.05
2023-04-16T04:24:49.137Z,0.05
2023-04-16T04:35:40.184Z,0.07
2023-04-16T04:39:49.925Z,0.08
2023-04-16T04:44:46.937Z,0.1
2023-04-16T04:49:46.773Z,0.11
2023-04-16T05:04:33.221Z,0.19
2023-04-16T05:09:32.756Z,0.19
2023-04-16T05:14:33.600Z,0.2
2023-04-16T05:19:30.653Z,0.24
2023-04-16T05:24:29.146Z,0.25
2023-04-16T05:29:29.466Z,0.29
2023-04-16T05:34:29.311Z,0.31
2023-04-16T05:39:29.582Z,0.34
2023-04-16T05:44:28.723Z,0.46
2023-04-16T05:49:28.259Z,0.49
2023-04-16T05:54:29.579Z,0.54
2023-04-16T06:19:23.232Z,1.56
2023-04-16T06:24:22.902Z,1.79
2023-04-16T06:29:27.991Z,1.8
2023-04-16T06:34:21.554Z,1.78
2023-04-16T06:39:21.282Z,1.96
2023-04-16T06:44:20.878Z,1.85
2023-04-16T06:49:21.624Z,1.82
2023-04-16T06:54:20.319Z,2.04
2023-04-16T07:01:08.199Z,1.93
2023-04-16T07:05:41.186Z,1.97
2023-04-16T07:10:40.671Z,1.97
2023-04-16T07:15:40.330Z,2.12
2023-04-16T07:20:39.981Z,2.73
2023-04-16T07:25:41.596Z,2.7
2023-04-16T07:30:39.967Z,2.23
2023-04-16T07:35:40.833Z,2.27
2023-04-16T07:40:37.339Z,2.45
2023-04-16T07:45:38.607Z,3.51
2023-04-16T07:50:36.748Z,4.06
2023-04-16T07:55:36.906Z,2.98
2023-04-16T07:59:53.769Z,2.36
2023-04-16T08:59:47.513Z,3.37
2023-04-16T10:04:23.954Z,3.79
2023-04-16T10:09:23.432Z,4.1
2023-04-16T10:14:22.008Z,4.47
2023-04-16T10:19:22.590Z,5.26
2023-04-16T10:24:19.524Z,5.24
2023-04-16T10:29:20.328Z,5.47
2023-04-16T10:34:19.441Z,6.65
2023-04-16T10:39:18.924Z,5.26
2023-04-16T10:44:18.215Z,4.93
2023-04-16T10:49:31.759Z,3.87
2023-04-16T10:54:17.124Z,4.68
2023-04-16T10:59:16.859Z,3.69
2023-04-16T11:01:03.159Z,3.91
2023-04-16T11:05:37.115Z,6.02
2023-04-16T11:10:36.472Z,3.28
2023-04-16T11:15:36.200Z,4.75
2023-04-16T11:20:36.794Z,4.78
2023-04-16T11:25:33.780Z,4.24
2023-04-16T11:30:34.369Z,5.57
2023-04-16T11:35:32.518Z,4.37
2023-04-16T11:40:32.410Z,6.27
2023-04-16T11:45:31.674Z,8.07
2023-04-16T11:50:31.252Z,5.36
2023-04-16T11:55:31.381Z,5.08
2023-04-16T12:00:10.535Z,4.56
2023-04-16T12:05:06.058Z,4.87
2023-04-16T12:10:06.041Z,5.03
2023-04-16T12:15:05.876Z,4.56
2023-04-16T12:20:04.833Z,4.31
2023-04-16T12:25:04.323Z,4.03
2023-04-16T12:30:04.500Z,3.76
2023-04-16T12:49:52.613Z,3.67
2023-04-16T14:04:16.506Z,2.37
2023-04-16T14:09:15.455Z,2.11
2023-04-16T14:19:16.629Z,2.24
2023-04-16T14:24:13.095Z,2.09
2023-04-16T14:29:12.866Z,1.98
2023-04-16T14:34:12.580Z,2.27
2023-04-16T14:39:12.855Z,2.13
2023-04-16T14:44:12.207Z,2.55
2023-04-16T14:49:11.533Z,2.16
2023-04-16T14:54:08.955Z,2.3
2023-04-16T15:03:54.814Z,1.75
2023-04-16T15:08:53.019Z,1.92
2023-04-16T15:13:52.762Z,1.84
2023-04-16T15:18:52.525Z,2.07
2023-04-16T15:23:49.830Z,1.57
2023-04-16T15:28:49.902Z,1.31
2023-04-16T15:33:49.281Z,1.23
2023-04-16T15:38:48.566Z,1.11
2023-04-16T15:43:48.076Z,1.09
2023-04-16T15:48:49.464Z,1.07
2023-04-16T15:53:47.430Z,0.99
2023-04-16T15:58:34.276Z,1.35
2023-04-16T16:03:34.277Z,1.64
2023-04-16T16:08:33.450Z,1.61
2023-04-16T16:13:34.533Z,1.4
2023-04-16T16:18:33.276Z,1.03
2023-04-16T16:23:44.198Z,1.13
2023-04-16T16:28:41.643Z,1.16
2023-04-16T16:33:41.462Z,1.23
2023-04-16T16:38:42.243Z,1.19
2023-04-16T16:43:39.149Z,1.35
2023-04-16T16:48:38.537Z,1.27
2023-04-16T16:53:39.606Z,1.12
2023-04-16T16:58:37.114Z,1.03
2023-04-16T17:00:24.496Z,0.99
2023-04-16T17:05:02.340Z,0.81
2023-04-16T17:09:59.579Z,0.47
2023-04-16T17:14:57.535Z,0.39
2023-04-16T17:19:57.467Z,0.23
2023-04-16T17:24:57.101Z,0.24
2023-04-16T17:29:58.382Z,0.25
2023-04-16T17:34:55.415Z,0.24
2023-04-16T17:39:55.052Z,0.25
2023-04-16T17:44:55.626Z,0.22
2023-04-16T17:49:54.587Z,0.27
2023-04-16T17:54:52.713Z,0.26
2023-04-16T18:04:35.983Z,0.14
2023-04-16T18:09:34.455Z,0.11
2023-04-16T18:14:34.696Z,0.07
2023-04-16T18:19:33.768Z,0.06
2023-04-16T18:24:33.418Z,0.06
2023-04-16T18:29:37.231Z,0.05
2023-04-16T18:34:42.450Z,0.05
2023-04-16T18:39:44.501Z,0.04
2023-04-16T18:44:41.167Z,0.04
2023-04-16T18:49:39.853Z,0.04
2023-04-16T18:54:40.586Z,0.04
2023-04-16T19:39:25.104Z,0.04
2023-04-16T19:44:23.972Z,0.04
2023-04-16T19:49:24.167Z,0.04
2023-04-16T19:54:25.068Z,0.04
2023-04-16T20:01:09.753Z,0.04
2023-04-16T20:05:42.312Z,0.04
2023-04-16T20:15:40.949Z,0.04
2023-04-16T20:20:41.364Z,0.04
2023-04-16T20:25:41.008Z,0.04
2023-04-16T20:30:42.369Z,0.04
2023-04-16T20:35:38.665Z,0.04
2023-04-16T20:40:38.992Z,0.04
2023-04-16T20:45:38.236Z,0.04
2023-04-16T20:50:37.804Z,0.04
2023-04-16T20:55:35.728Z,0.04
2023-04-16T22:14:46.412Z,0.04
2023-04-16T22:44:53.052Z,0.04
2023-04-16T23:04:26.212Z,0.04
2023-04-16T23:09:25.633Z,0.04
2023-04-16T23:14:27.605Z,0.04
2023-04-16T23:19:23.839Z,0.04
2023-04-16T23:24:24.031Z,0.04
2023-04-16T23:29:23.521Z,0.04
2023-04-16T23:39:23.339Z,0.04
2023-04-16T23:44:20.372Z,0.04
2023-04-16T23:49:20.440Z,0.04
2023-04-16T23:54:19.618Z,0.04
2023-04-16T23:59:19.649Z,0.04
